sensor_id;sensor_type;location;lat;lon;timestamp;P1;durP1;ratioP1;P2;durP2;ratioP2
7607;SDS011;3845;48.120;11.534;2022-07-24T00:01:51;6.27;;;5.77;;
7607;SDS011;3845;48.120;11.534;2022-07-24T00:04:17;6.23;;;5.73;;
7607;SDS011;3845;48.120;11.534;2022-07-24T00:06:42;6.47;;;5.90;;
7607;SDS011;3845;48.120;11.534;2022-07-24T00:09:07;6.43;;;5.83;;
7607;SDS011;3845;48.120;11.534;2022-07-24T00:11:33;5.93;;;5.43;;
7607;SDS011;3845;48.120;11.534;2022-07-24T00:13:59;5.83;;;5.37;;
7607;SDS011;3845;48.120;11.534;2022-07-24T00:16:24;6.23;;;5.73;;
7607;SDS011;3845;48.120;11.534;2022-07-24T00:18:49;6.27;;;5.77;;
7607;SDS011;3845;48.120;11.534;2022-07-24T00:21:15;6.37;;;5.87;;
7607;SDS011;3845;48.120;11.534;2022-07-24T00:23:40;6.27;;;5.67;;
7607;SDS011;3845;48.120;11.534;2022-07-24T00:26:08;6.13;;;5.63;;
7607;SDS011;3845;48.120;11.534;2022-07-24T00:28:33;6.03;;;5.53;;
7607;SDS011;3845;48.120;11.534;2022-07-24T00:30:59;6.10;;;5.60;;
7607;SDS011;3845;48.120;11.534;2022-07-24T00:33:24;6.03;;;5.53;;
7607;SDS011;3845;48.120;11.534;2022-07-24T00:35:49;6.03;;;5.53;;
7607;SDS011;3845;48.120;11.534;2022-07-24T00:38:15;6.67;;;5.93;;
7607;SDS011;3845;48.120;11.534;2022-07-24T00:40:40;6.47;;;5.90;;
7607;SDS011;3845;48.120;11.534;2022-07-24T00:43:06;6.23;;;5.70;;
7607;SDS011;3845;48.120;11.534;2022-07-24T00:45:31;6.27;;;5.67;;
7607;SDS011;3845;48.120;11.534;2022-07-24T00:47:56;6.53;;;6.03;;
7607;SDS011;3845;48.120;11.534;2022-07-24T00:50:22;6.70;;;6.10;;
7607;SDS011;3845;48.120;11.534;2022-07-24T00:52:47;6.20;;;5.70;;
7607;SDS011;3845;48.120;11.534;2022-07-24T00:55:13;6.90;;;6.20;;
7607;SDS011;3845;48.120;11.534;2022-07-24T00:57:40;7.10;;;6.50;;
7607;SDS011;3845;48.120;11.534;2022-07-24T01:00:09;6.20;;;5.70;;
7607;SDS011;3845;48.120;11.534;2022-07-24T01:02:35;6.10;;;5.60;;
7607;SDS011;3845;48.120;11.534;2022-07-24T01:05:04;6.40;;;5.90;;
7607;SDS011;3845;48.120;11.534;2022-07-24T01:07:30;7.30;;;6.33;;
7607;SDS011;3845;48.120;11.534;2022-07-24T01:09:55;6.60;;;5.97;;
7607;SDS011;3845;48.120;11.534;2022-07-24T01:12:21;6.33;;;5.83;;
7607;SDS011;3845;48.120;11.534;2022-07-24T01:14:47;6.70;;;6.10;;
7607;SDS011;3845;48.120;11.534;2022-07-24T01:17:12;6.50;;;6.00;;
7607;SDS011;3845;48.120;11.534;2022-07-24T01:19:37;6.83;;;6.23;;
7607;SDS011;3845;48.120;11.534;2022-07-24T01:22:03;7.07;;;6.47;;
7607;SDS011;3845;48.120;11.534;2022-07-24T01:24:28;6.17;;;5.67;;
7607;SDS011;3845;48.120;11.534;2022-07-24T01:26:54;6.63;;;6.03;;
7607;SDS011;3845;48.120;11.534;2022-07-24T01:29:20;6.30;;;5.80;;
7607;SDS011;3845;48.120;11.534;2022-07-24T01:31:45;6.50;;;6.00;;
7607;SDS011;3845;48.120;11.534;2022-07-24T01:34:11;5.93;;;5.43;;
7607;SDS011;3845;48.120;11.534;2022-07-24T01:36:37;6.50;;;6.00;;
7607;SDS011;3845;48.120;11.534;2022-07-24T01:39:02;6.50;;;6.00;;
7607;SDS011;3845;48.120;11.534;2022-07-24T01:41:28;8.00;;;6.80;;
7607;SDS011;3845;48.120;11.534;2022-07-24T01:43:53;6.70;;;6.10;;
7607;SDS011;3845;48.120;11.534;2022-07-24T01:46:18;6.53;;;5.93;;
7607;SDS011;3845;48.120;11.534;2022-07-24T01:48:44;6.90;;;6.30;;
7607;SDS011;3845;48.120;11.534;2022-07-24T01:51:09;6.43;;;5.83;;
7607;SDS011;3845;48.120;11.534;2022-07-24T01:53:35;6.77;;;6.17;;
7607;SDS011;3845;48.120;11.534;2022-07-24T01:56:01;5.90;;;5.40;;
7607;SDS011;3845;48.120;11.534;2022-07-24T01:58:26;6.40;;;5.90;;
7607;SDS011;3845;48.120;11.534;2022-07-24T02:00:51;5.83;;;5.40;;
7607;SDS011;3845;48.120;11.534;2022-07-24T02:03:17;7.33;;;6.63;;
7607;SDS011;3845;48.120;11.534;2022-07-24T02:05:43;6.73;;;6.13;;
7607;SDS011;3845;48.120;11.534;2022-07-24T02:08:09;7.00;;;6.40;;
7607;SDS011;3845;48.120;11.534;2022-07-24T02:10:34;7.57;;;6.87;;
7607;SDS011;3845;48.120;11.534;2022-07-24T02:12:59;7.23;;;6.63;;
7607;SDS011;3845;48.120;11.534;2022-07-24T02:15:25;7.23;;;6.63;;
7607;SDS011;3845;48.120;11.534;2022-07-24T02:17:51;7.00;;;6.47;;
7607;SDS011;3845;48.120;11.534;2022-07-24T02:20:18;7.57;;;6.97;;
7607;SDS011;3845;48.120;11.534;2022-07-24T02:22:44;7.80;;;7.10;;
7607;SDS011;3845;48.120;11.534;2022-07-24T02:25:09;7.67;;;7.03;;
7607;SDS011;3845;48.120;11.534;2022-07-24T02:27:36;7.30;;;6.60;;
7607;SDS011;3845;48.120;11.534;2022-07-24T02:30:03;6.93;;;6.30;;
7607;SDS011;3845;48.120;11.534;2022-07-24T02:32:29;7.07;;;6.47;;
7607;SDS011;3845;48.120;11.534;2022-07-24T02:34:54;6.70;;;6.10;;
7607;SDS011;3845;48.120;11.534;2022-07-24T02:37:19;6.37;;;5.87;;
7607;SDS011;3845;48.120;11.534;2022-07-24T02:39:44;6.83;;;6.23;;
7607;SDS011;3845;48.120;11.534;2022-07-24T02:42:10;6.63;;;6.03;;
7607;SDS011;3845;48.120;11.534;2022-07-24T02:44:35;6.80;;;6.20;;
7607;SDS011;3845;48.120;11.534;2022-07-24T02:47:00;6.60;;;6.10;;
7607;SDS011;3845;48.120;11.534;2022-07-24T02:49:25;6.40;;;5.90;;
7607;SDS011;3845;48.120;11.534;2022-07-24T02:51:51;6.80;;;6.20;;
7607;SDS011;3845;48.120;11.534;2022-07-24T02:54:16;6.37;;;5.87;;
7607;SDS011;3845;48.120;11.534;2022-07-24T02:56:42;6.50;;;6.00;;
7607;SDS011;3845;48.120;11.534;2022-07-24T02:59:07;6.10;;;5.60;;
7607;SDS011;3845;48.120;11.534;2022-07-24T03:01:32;7.00;;;6.30;;
7607;SDS011;3845;48.120;11.534;2022-07-24T03:03:58;6.33;;;5.83;;
7607;SDS011;3845;48.120;11.534;2022-07-24T03:06:23;6.40;;;5.90;;
7607;SDS011;3845;48.120;11.534;2022-07-24T03:08:48;6.27;;;5.77;;
7607;SDS011;3845;48.120;11.534;2022-07-24T03:11:14;6.30;;;5.80;;
7607;SDS011;3845;48.120;11.534;2022-07-24T03:13:39;6.20;;;5.70;;
7607;SDS011;3845;48.120;11.534;2022-07-24T03:16:05;6.60;;;6.10;;
7607;SDS011;3845;48.120;11.534;2022-07-24T03:18:30;6.70;;;6.10;;
7607;SDS011;3845;48.120;11.534;2022-07-24T03:20:56;6.50;;;6.00;;
7607;SDS011;3845;48.120;11.534;2022-07-24T03:23:21;7.23;;;6.53;;
7607;SDS011;3845;48.120;11.534;2022-07-24T03:25:46;6.90;;;6.30;;
7607;SDS011;3845;48.120;11.534;2022-07-24T03:28:12;7.03;;;6.43;;
7607;SDS011;3845;48.120;11.534;2022-07-24T03:30:37;7.10;;;6.50;;
7607;SDS011;3845;48.120;11.534;2022-07-24T03:33:03;6.90;;;6.30;;
7607;SDS011;3845;48.120;11.534;2022-07-24T03:35:28;6.87;;;6.27;;
7607;SDS011;3845;48.120;11.534;2022-07-24T03:37:53;7.03;;;6.43;;
7607;SDS011;3845;48.120;11.534;2022-07-24T03:40:19;6.87;;;6.37;;
7607;SDS011;3845;48.120;11.534;2022-07-24T03:42:45;6.40;;;5.80;;
7607;SDS011;3845;48.120;11.534;2022-07-24T03:45:10;6.50;;;6.00;;
7607;SDS011;3845;48.120;11.534;2022-07-24T03:47:35;6.60;;;6.10;;
7607;SDS011;3845;48.120;11.534;2022-07-24T03:50:01;6.60;;;6.00;;
7607;SDS011;3845;48.120;11.534;2022-07-24T03:52:27;7.20;;;6.60;;
7607;SDS011;3845;48.120;11.534;2022-07-24T03:54:52;7.50;;;6.90;;
7607;SDS011;3845;48.120;11.534;2022-07-24T03:57:17;7.50;;;6.87;;
7607;SDS011;3845;48.120;11.534;2022-07-24T03:59:43;6.87;;;6.27;;
7607;SDS011;3845;48.120;11.534;2022-07-24T04:02:08;7.20;;;6.60;;
7607;SDS011;3845;48.120;11.534;2022-07-24T04:04:33;7.10;;;6.43;;
7607;SDS011;3845;48.120;11.534;2022-07-24T04:06:59;6.93;;;6.33;;
7607;SDS011;3845;48.120;11.534;2022-07-24T04:09:24;7.23;;;6.63;;
7607;SDS011;3845;48.120;11.534;2022-07-24T04:11:49;7.77;;;7.07;;
7607;SDS011;3845;48.120;11.534;2022-07-24T04:14:15;7.60;;;6.90;;
7607;SDS011;3845;48.120;11.534;2022-07-24T04:16:40;7.43;;;6.83;;
7607;SDS011;3845;48.120;11.534;2022-07-24T04:19:05;7.67;;;6.97;;
7607;SDS011;3845;48.120;11.534;2022-07-24T04:21:30;8.07;;;7.37;;
7607;SDS011;3845;48.120;11.534;2022-07-24T04:23:56;10.53;;;9.63;;
7607;SDS011;3845;48.120;11.534;2022-07-24T04:26:21;11.53;;;10.47;;
7607;SDS011;3845;48.120;11.534;2022-07-24T04:28:46;11.27;;;10.10;;
7607;SDS011;3845;48.120;11.534;2022-07-24T04:31:12;10.93;;;10.03;;
7607;SDS011;3845;48.120;11.534;2022-07-24T04:33:37;9.73;;;8.93;;
7607;SDS011;3845;48.120;11.534;2022-07-24T04:36:03;11.30;;;10.30;;
7607;SDS011;3845;48.120;11.534;2022-07-24T04:38:29;9.53;;;8.63;;
7607;SDS011;3845;48.120;11.534;2022-07-24T04:40:57;8.73;;;8.03;;
7607;SDS011;3845;48.120;11.534;2022-07-24T04:43:22;8.20;;;7.50;;
7607;SDS011;3845;48.120;11.534;2022-07-24T04:45:47;8.17;;;7.47;;
7607;SDS011;3845;48.120;11.534;2022-07-24T04:48:13;8.17;;;7.40;;
7607;SDS011;3845;48.120;11.534;2022-07-24T04:50:38;8.30;;;7.50;;
7607;SDS011;3845;48.120;11.534;2022-07-24T04:53:03;8.00;;;7.30;;
7607;SDS011;3845;48.120;11.534;2022-07-24T04:55:29;8.07;;;7.37;;
7607;SDS011;3845;48.120;11.534;2022-07-24T04:57:54;7.33;;;6.73;;
7607;SDS011;3845;48.120;11.534;2022-07-24T05:00:19;9.33;;;8.53;;
7607;SDS011;3845;48.120;11.534;2022-07-24T05:02:45;7.90;;;7.20;;
7607;SDS011;3845;48.120;11.534;2022-07-24T05:05:10;7.93;;;7.23;;
7607;SDS011;3845;48.120;11.534;2022-07-24T05:07:36;8.27;;;7.57;;
7607;SDS011;3845;48.120;11.534;2022-07-24T05:10:01;8.33;;;7.63;;
7607;SDS011;3845;48.120;11.534;2022-07-24T05:12:27;8.33;;;7.63;;
7607;SDS011;3845;48.120;11.534;2022-07-24T05:14:52;7.70;;;7.10;;
7607;SDS011;3845;48.120;11.534;2022-07-24T05:17:17;7.73;;;7.13;;
7607;SDS011;3845;48.120;11.534;2022-07-24T05:19:43;8.10;;;7.40;;
7607;SDS011;3845;48.120;11.534;2022-07-24T05:22:08;10.33;;;9.43;;
7607;SDS011;3845;48.120;11.534;2022-07-24T05:24:33;10.33;;;9.47;;
7607;SDS011;3845;48.120;11.534;2022-07-24T05:26:59;9.93;;;9.03;;
7607;SDS011;3845;48.120;11.534;2022-07-24T05:29:24;9.30;;;8.50;;
7607;SDS011;3845;48.120;11.534;2022-07-24T05:31:50;9.90;;;9.00;;
7607;SDS011;3845;48.120;11.534;2022-07-24T05:34:16;9.20;;;8.40;;
7607;SDS011;3845;48.120;11.534;2022-07-24T05:36:42;8.77;;;7.97;;
7607;SDS011;3845;48.120;11.534;2022-07-24T05:39:07;8.77;;;7.90;;
7607;SDS011;3845;48.120;11.534;2022-07-24T05:41:32;8.50;;;7.77;;
7607;SDS011;3845;48.120;11.534;2022-07-24T05:43:58;8.87;;;7.97;;
7607;SDS011;3845;48.120;11.534;2022-07-24T05:46:23;10.03;;;9.13;;
7607;SDS011;3845;48.120;11.534;2022-07-24T05:48:48;8.60;;;7.80;;
7607;SDS011;3845;48.120;11.534;2022-07-24T05:51:14;8.43;;;7.70;;
7607;SDS011;3845;48.120;11.534;2022-07-24T05:53:39;7.37;;;6.77;;
7607;SDS011;3845;48.120;11.534;2022-07-24T05:56:05;8.43;;;7.70;;
7607;SDS011;3845;48.120;11.534;2022-07-24T05:58:30;7.60;;;7.00;;
7607;SDS011;3845;48.120;11.534;2022-07-24T06:00:55;7.90;;;7.20;;
7607;SDS011;3845;48.120;11.534;2022-07-24T06:03:21;7.60;;;7.00;;
7607;SDS011;3845;48.120;11.534;2022-07-24T06:05:46;6.67;;;6.17;;
7607;SDS011;3845;48.120;11.534;2022-07-24T06:08:11;7.53;;;6.83;;
7607;SDS011;3845;48.120;11.534;2022-07-24T06:10:36;7.97;;;7.37;;
7607;SDS011;3845;48.120;11.534;2022-07-24T06:13:02;7.43;;;6.83;;
7607;SDS011;3845;48.120;11.534;2022-07-24T06:15:27;7.53;;;6.93;;
7607;SDS011;3845;48.120;11.534;2022-07-24T06:17:53;8.93;;;8.13;;
7607;SDS011;3845;48.120;11.534;2022-07-24T06:20:19;7.32;;;6.72;;
7607;SDS011;3845;48.120;11.534;2022-07-24T06:22:44;7.03;;;6.43;;
7607;SDS011;3845;48.120;11.534;2022-07-24T06:25:10;6.78;;;6.18;;
7607;SDS011;3845;48.120;11.534;2022-07-24T06:27:45;6.88;;;6.38;;
7607;SDS011;3845;48.120;11.534;2022-07-24T06:30:15;6.97;;;6.28;;
7607;SDS011;3845;48.120;11.534;2022-07-24T06:32:41;6.80;;;6.20;;
7607;SDS011;3845;48.120;11.534;2022-07-24T06:35:07;6.32;;;5.82;;
7607;SDS011;3845;48.120;11.534;2022-07-24T06:37:32;6.40;;;5.80;;
7607;SDS011;3845;48.120;11.534;2022-07-24T06:39:58;6.45;;;5.95;;
7607;SDS011;3845;48.120;11.534;2022-07-24T06:42:23;5.95;;;5.45;;
7607;SDS011;3845;48.120;11.534;2022-07-24T06:44:49;7.45;;;5.85;;
7607;SDS011;3845;48.120;11.534;2022-07-24T06:47:14;5.95;;;5.45;;
7607;SDS011;3845;48.120;11.534;2022-07-24T06:49:39;6.35;;;5.80;;
7607;SDS011;3845;48.120;11.534;2022-07-24T06:52:05;6.50;;;6.00;;
7607;SDS011;3845;48.120;11.534;2022-07-24T06:54:30;6.40;;;5.80;;
7607;SDS011;3845;48.120;11.534;2022-07-24T06:56:55;5.85;;;5.35;;
7607;SDS011;3845;48.120;11.534;2022-07-24T06:59:21;6.78;;;6.05;;
7607;SDS011;3845;48.120;11.534;2022-07-24T07:01:46;8.10;;;7.40;;
7607;SDS011;3845;48.120;11.534;2022-07-24T07:04:11;7.50;;;6.90;;
7607;SDS011;3845;48.120;11.534;2022-07-24T07:06:37;6.60;;;6.10;;
7607;SDS011;3845;48.120;11.534;2022-07-24T07:09:02;5.60;;;5.10;;
7607;SDS011;3845;48.120;11.534;2022-07-24T07:11:27;5.55;;;5.13;;
7607;SDS011;3845;48.120;11.534;2022-07-24T07:13:53;5.80;;;4.97;;
7607;SDS011;3845;48.120;11.534;2022-07-24T07:16:18;5.43;;;5.03;;
7607;SDS011;3845;48.120;11.534;2022-07-24T07:18:43;5.88;;;5.38;;
7607;SDS011;3845;48.120;11.534;2022-07-24T07:21:08;6.05;;;5.45;;
7607;SDS011;3845;48.120;11.534;2022-07-24T07:23:34;5.78;;;5.28;;
7607;SDS011;3845;48.120;11.534;2022-07-24T07:25:59;5.30;;;4.90;;
7607;SDS011;3845;48.120;11.534;2022-07-24T07:28:24;6.47;;;5.60;;
7607;SDS011;3845;48.120;11.534;2022-07-24T07:30:50;5.80;;;5.30;;
7607;SDS011;3845;48.120;11.534;2022-07-24T07:33:15;5.15;;;4.68;;
7607;SDS011;3845;48.120;11.534;2022-07-24T07:35:40;5.88;;;5.35;;
7607;SDS011;3845;48.120;11.534;2022-07-24T07:38:06;5.47;;;4.97;;
7607;SDS011;3845;48.120;11.534;2022-07-24T07:40:31;5.32;;;4.93;;
7607;SDS011;3845;48.120;11.534;2022-07-24T07:42:56;5.53;;;5.03;;
7607;SDS011;3845;48.120;11.534;2022-07-24T07:45:21;6.15;;;5.45;;
7607;SDS011;3845;48.120;11.534;2022-07-24T07:47:47;6.07;;;5.40;;
7607;SDS011;3845;48.120;11.534;2022-07-24T07:50:12;8.05;;;5.78;;
7607;SDS011;3845;48.120;11.534;2022-07-24T07:52:38;6.13;;;5.63;;
7607;SDS011;3845;48.120;11.534;2022-07-24T07:55:03;6.22;;;5.72;;
7607;SDS011;3845;48.120;11.534;2022-07-24T07:57:29;6.18;;;5.68;;
7607;SDS011;3845;48.120;11.534;2022-07-24T07:59:55;5.68;;;5.10;;
7607;SDS011;3845;48.120;11.534;2022-07-24T08:02:20;6.47;;;5.85;;
7607;SDS011;3845;48.120;11.534;2022-07-24T08:04:45;6.40;;;5.90;;
7607;SDS011;3845;48.120;11.534;2022-07-24T08:07:10;5.78;;;5.28;;
7607;SDS011;3845;48.120;11.534;2022-07-24T08:09:36;7.18;;;6.47;;
7607;SDS011;3845;48.120;11.534;2022-07-24T08:12:02;7.18;;;6.47;;
7607;SDS011;3845;48.120;11.534;2022-07-24T08:14:28;6.67;;;5.97;;
7607;SDS011;3845;48.120;11.534;2022-07-24T08:16:54;6.60;;;6.00;;
7607;SDS011;3845;48.120;11.534;2022-07-24T08:19:19;7.20;;;6.60;;
7607;SDS011;3845;48.120;11.534;2022-07-24T08:21:45;6.93;;;6.07;;
7607;SDS011;3845;48.120;11.534;2022-07-24T08:24:11;7.13;;;6.53;;
7607;SDS011;3845;48.120;11.534;2022-07-24T08:26:37;7.30;;;6.70;;
7607;SDS011;3845;48.120;11.534;2022-07-24T08:29:03;7.47;;;6.80;;
7607;SDS011;3845;48.120;11.534;2022-07-24T08:31:28;7.57;;;6.87;;
7607;SDS011;3845;48.120;11.534;2022-07-24T08:33:54;7.13;;;6.53;;
7607;SDS011;3845;48.120;11.534;2022-07-24T08:36:19;6.30;;;5.80;;
7607;SDS011;3845;48.120;11.534;2022-07-24T08:38:45;7.60;;;6.73;;
7607;SDS011;3845;48.120;11.534;2022-07-24T08:41:11;7.00;;;6.27;;
7607;SDS011;3845;48.120;11.534;2022-07-24T08:43:37;6.80;;;6.20;;
7607;SDS011;3845;48.120;11.534;2022-07-24T08:46:02;6.03;;;5.40;;
7607;SDS011;3845;48.120;11.534;2022-07-24T08:48:29;9.03;;;6.60;;
7607;SDS011;3845;48.120;11.534;2022-07-24T08:50:54;6.67;;;6.17;;
7607;SDS011;3845;48.120;11.534;2022-07-24T08:53:20;8.23;;;6.70;;
7607;SDS011;3845;48.120;11.534;2022-07-24T08:55:47;6.77;;;6.17;;
7607;SDS011;3845;48.120;11.534;2022-07-24T08:58:12;6.80;;;6.20;;
7607;SDS011;3845;48.120;11.534;2022-07-24T09:00:37;6.73;;;6.10;;
7607;SDS011;3845;48.120;11.534;2022-07-24T09:03:03;7.67;;;6.97;;
7607;SDS011;3845;48.120;11.534;2022-07-24T09:05:29;7.80;;;6.43;;
7607;SDS011;3845;48.120;11.534;2022-07-24T09:08:07;6.90;;;6.30;;
7607;SDS011;3845;48.120;11.534;2022-07-24T09:10:36;6.30;;;5.70;;
7607;SDS011;3845;48.120;11.534;2022-07-24T09:13:11;5.80;;;5.20;;
7607;SDS011;3845;48.120;11.534;2022-07-24T09:15:45;6.27;;;5.77;;
7607;SDS011;3845;48.120;11.534;2022-07-24T09:18:24;7.33;;;6.73;;
7607;SDS011;3845;48.120;11.534;2022-07-24T09:21:11;7.53;;;6.83;;
7607;SDS011;3845;48.120;11.534;2022-07-24T09:23:37;7.10;;;6.50;;
7607;SDS011;3845;48.120;11.534;2022-07-24T09:26:03;6.77;;;6.17;;
7607;SDS011;3845;48.120;11.534;2022-07-24T09:28:29;8.30;;;7.17;;
7607;SDS011;3845;48.120;11.534;2022-07-24T09:30:54;7.53;;;6.93;;
7607;SDS011;3845;48.120;11.534;2022-07-24T09:33:26;8.10;;;7.33;;
7607;SDS011;3845;48.120;11.534;2022-07-24T09:36:00;9.33;;;7.30;;
7607;SDS011;3845;48.120;11.534;2022-07-24T09:38:36;7.00;;;6.40;;
7607;SDS011;3845;48.120;11.534;2022-07-24T09:41:02;6.93;;;6.33;;
7607;SDS011;3845;48.120;11.534;2022-07-24T09:43:28;7.97;;;6.60;;
7607;SDS011;3845;48.120;11.534;2022-07-24T09:45:59;7.10;;;6.40;;
7607;SDS011;3845;48.120;11.534;2022-07-24T09:48:35;8.80;;;7.27;;
7607;SDS011;3845;48.120;11.534;2022-07-24T09:53:31;7.70;;;6.90;;
7607;SDS011;3845;48.120;11.534;2022-07-24T09:58:23;7.73;;;6.93;;
7607;SDS011;3845;48.120;11.534;2022-07-24T10:00:49;8.20;;;7.40;;
7607;SDS011;3845;48.120;11.534;2022-07-24T10:03:14;7.00;;;6.30;;
7607;SDS011;3845;48.120;11.534;2022-07-24T10:05:43;10.13;;;7.23;;
7607;SDS011;3845;48.120;11.534;2022-07-24T10:08:11;8.37;;;7.60;;
7607;SDS011;3845;48.120;11.534;2022-07-24T10:10:40;8.27;;;7.50;;
7607;SDS011;3845;48.120;11.534;2022-07-24T10:13:06;7.97;;;7.27;;
7607;SDS011;3845;48.120;11.534;2022-07-24T10:15:33;7.87;;;7.17;;
7607;SDS011;3845;48.120;11.534;2022-07-24T10:18:14;8.17;;;6.77;;
7607;SDS011;3845;48.120;11.534;2022-07-24T10:20:42;7.20;;;6.50;;
7607;SDS011;3845;48.120;11.534;2022-07-24T10:23:08;6.77;;;6.23;;
7607;SDS011;3845;48.120;11.534;2022-07-24T10:25:54;9.00;;;7.67;;
7607;SDS011;3845;48.120;11.534;2022-07-24T10:28:27;8.13;;;7.43;;
7607;SDS011;3845;48.120;11.534;2022-07-24T10:31:02;7.97;;;7.27;;
7607;SDS011;3845;48.120;11.534;2022-07-24T10:33:29;7.83;;;7.23;;
7607;SDS011;3845;48.120;11.534;2022-07-24T10:35:55;7.33;;;6.70;;
7607;SDS011;3845;48.120;11.534;2022-07-24T10:38:25;10.30;;;9.40;;
7607;SDS011;3845;48.120;11.534;2022-07-24T10:40:55;7.93;;;7.30;;
7607;SDS011;3845;48.120;11.534;2022-07-24T10:43:27;7.53;;;6.93;;
7607;SDS011;3845;48.120;11.534;2022-07-24T10:53:42;6.70;;;6.10;;
7607;SDS011;3845;48.120;11.534;2022-07-24T11:03:52;7.00;;;6.40;;
7607;SDS011;3845;48.120;11.534;2022-07-24T11:06:17;6.73;;;6.13;;
7607;SDS011;3845;48.120;11.534;2022-07-24T11:11:15;7.27;;;6.60;;
7607;SDS011;3845;48.120;11.534;2022-07-24T11:13:52;7.27;;;6.60;;
7607;SDS011;3845;48.120;11.534;2022-07-24T11:16:19;7.40;;;6.80;;
7607;SDS011;3845;48.120;11.534;2022-07-24T11:21:32;9.03;;;6.90;;
7607;SDS011;3845;48.120;11.534;2022-07-24T11:26:49;6.40;;;5.90;;
7607;SDS011;3845;48.120;11.534;2022-07-24T11:31:44;7.80;;;7.10;;
7607;SDS011;3845;48.120;11.534;2022-07-24T11:34:11;7.07;;;6.47;;
7607;SDS011;3845;48.120;11.534;2022-07-24T11:36:38;6.63;;;6.13;;
7607;SDS011;3845;48.120;11.534;2022-07-24T11:39:06;7.47;;;6.80;;
7607;SDS011;3845;48.120;11.534;2022-07-24T11:41:50;7.40;;;6.70;;
7607;SDS011;3845;48.120;11.534;2022-07-24T11:44:24;7.30;;;6.50;;
7607;SDS011;3845;48.120;11.534;2022-07-24T11:46:51;6.93;;;6.33;;
7607;SDS011;3845;48.120;11.534;2022-07-24T11:49:17;8.83;;;6.90;;
7607;SDS011;3845;48.120;11.534;2022-07-24T11:51:43;7.87;;;7.07;;
7607;SDS011;3845;48.120;11.534;2022-07-24T11:54:12;6.77;;;6.27;;
7607;SDS011;3845;48.120;11.534;2022-07-24T11:56:39;6.77;;;6.17;;
7607;SDS011;3845;48.120;11.534;2022-07-24T11:59:04;6.97;;;6.37;;
7607;SDS011;3845;48.120;11.534;2022-07-24T12:01:30;7.60;;;6.93;;
7607;SDS011;3845;48.120;11.534;2022-07-24T12:03:59;8.03;;;7.27;;
7607;SDS011;3845;48.120;11.534;2022-07-24T12:06:25;7.07;;;6.47;;
7607;SDS011;3845;48.120;11.534;2022-07-24T12:08:51;7.57;;;6.87;;
7607;SDS011;3845;48.120;11.534;2022-07-24T12:11:21;7.23;;;6.63;;
7607;SDS011;3845;48.120;11.534;2022-07-24T12:13:47;8.03;;;7.00;;
7607;SDS011;3845;48.120;11.534;2022-07-24T12:16:14;7.60;;;6.90;;
7607;SDS011;3845;48.120;11.534;2022-07-24T12:18:48;7.57;;;6.73;;
7607;SDS011;3845;48.120;11.534;2022-07-24T12:21:13;8.70;;;7.50;;
7607;SDS011;3845;48.120;11.534;2022-07-24T12:23:39;7.00;;;6.40;;
7607;SDS011;3845;48.120;11.534;2022-07-24T12:26:05;7.07;;;6.40;;
7607;SDS011;3845;48.120;11.534;2022-07-24T12:28:30;7.30;;;6.63;;
7607;SDS011;3845;48.120;11.534;2022-07-24T12:30:56;7.33;;;6.63;;
7607;SDS011;3845;48.120;11.534;2022-07-24T12:33:22;6.47;;;5.97;;
7607;SDS011;3845;48.120;11.534;2022-07-24T12:38:29;7.07;;;6.47;;
7607;SDS011;3845;48.120;11.534;2022-07-24T12:41:06;6.60;;;6.10;;
7607;SDS011;3845;48.120;11.534;2022-07-24T12:43:45;7.47;;;6.53;;
7607;SDS011;3845;48.120;11.534;2022-07-24T12:46:11;6.60;;;6.10;;
7607;SDS011;3845;48.120;11.534;2022-07-24T12:48:37;6.70;;;6.10;;
7607;SDS011;3845;48.120;11.534;2022-07-24T12:51:04;6.40;;;5.80;;
7607;SDS011;3845;48.120;11.534;2022-07-24T12:53:32;7.30;;;6.60;;
7607;SDS011;3845;48.120;11.534;2022-07-24T12:58:27;6.77;;;6.17;;
7607;SDS011;3845;48.120;11.534;2022-07-24T13:00:58;6.90;;;6.30;;
7607;SDS011;3845;48.120;11.534;2022-07-24T13:03:25;6.73;;;6.00;;
7607;SDS011;3845;48.120;11.534;2022-07-24T13:05:53;6.87;;;6.27;;
7607;SDS011;3845;48.120;11.534;2022-07-24T13:08:20;7.23;;;6.50;;
7607;SDS011;3845;48.120;11.534;2022-07-24T13:10:45;7.37;;;6.67;;
7607;SDS011;3845;48.120;11.534;2022-07-24T13:13:10;6.90;;;6.20;;
7607;SDS011;3845;48.120;11.534;2022-07-24T13:15:37;7.67;;;6.93;;
7607;SDS011;3845;48.120;11.534;2022-07-24T13:18:02;7.60;;;6.80;;
7607;SDS011;3845;48.120;11.534;2022-07-24T13:20:27;7.20;;;6.60;;
7607;SDS011;3845;48.120;11.534;2022-07-24T13:22:53;6.70;;;6.10;;
7607;SDS011;3845;48.120;11.534;2022-07-24T13:25:18;6.70;;;6.10;;
7607;SDS011;3845;48.120;11.534;2022-07-24T13:27:44;7.70;;;6.97;;
7607;SDS011;3845;48.120;11.534;2022-07-24T13:30:09;7.33;;;6.73;;
7607;SDS011;3845;48.120;11.534;2022-07-24T13:32:35;6.70;;;6.10;;
7607;SDS011;3845;48.120;11.534;2022-07-24T13:35:01;7.20;;;6.60;;
7607;SDS011;3845;48.120;11.534;2022-07-24T13:37:26;6.87;;;6.27;;
7607;SDS011;3845;48.120;11.534;2022-07-24T13:39:51;7.00;;;6.40;;
7607;SDS011;3845;48.120;11.534;2022-07-24T13:42:17;6.90;;;6.20;;
7607;SDS011;3845;48.120;11.534;2022-07-24T13:44:42;6.60;;;6.10;;
7607;SDS011;3845;48.120;11.534;2022-07-24T13:47:07;7.17;;;6.47;;
7607;SDS011;3845;48.120;11.534;2022-07-24T13:49:33;7.20;;;6.50;;
7607;SDS011;3845;48.120;11.534;2022-07-24T13:51:58;6.97;;;6.20;;
7607;SDS011;3845;48.120;11.534;2022-07-24T13:54:23;6.60;;;6.00;;
7607;SDS011;3845;48.120;11.534;2022-07-24T13:56:49;6.40;;;5.90;;
7607;SDS011;3845;48.120;11.534;2022-07-24T13:59:15;6.60;;;5.87;;
7607;SDS011;3845;48.120;11.534;2022-07-24T14:01:40;7.00;;;6.40;;
7607;SDS011;3845;48.120;11.534;2022-07-24T14:04:05;7.30;;;6.57;;
7607;SDS011;3845;48.120;11.534;2022-07-24T14:06:33;6.70;;;6.10;;
7607;SDS011;3845;48.120;11.534;2022-07-24T14:09:00;7.00;;;6.40;;
7607;SDS011;3845;48.120;11.534;2022-07-24T14:11:25;6.70;;;6.10;;
7607;SDS011;3845;48.120;11.534;2022-07-24T14:13:50;6.70;;;6.10;;
7607;SDS011;3845;48.120;11.534;2022-07-24T14:16:16;7.20;;;6.50;;
7607;SDS011;3845;48.120;11.534;2022-07-24T14:18:41;6.60;;;6.10;;
7607;SDS011;3845;48.120;11.534;2022-07-24T14:21:06;6.50;;;6.00;;
7607;SDS011;3845;48.120;11.534;2022-07-24T14:23:32;6.93;;;6.00;;
7607;SDS011;3845;48.120;11.534;2022-07-24T14:25:57;6.73;;;6.20;;
7607;SDS011;3845;48.120;11.534;2022-07-24T14:28:22;10.47;;;7.03;;
7607;SDS011;3845;48.120;11.534;2022-07-24T14:30:48;6.87;;;6.27;;
7607;SDS011;3845;48.120;11.534;2022-07-24T14:33:13;6.80;;;6.20;;
7607;SDS011;3845;48.120;11.534;2022-07-24T14:35:38;6.00;;;5.47;;
7607;SDS011;3845;48.120;11.534;2022-07-24T14:38:04;6.80;;;6.30;;
7607;SDS011;3845;48.120;11.534;2022-07-24T14:40:29;6.30;;;5.70;;
7607;SDS011;3845;48.120;11.534;2022-07-24T14:42:54;6.43;;;5.80;;
7607;SDS011;3845;48.120;11.534;2022-07-24T14:45:20;6.33;;;5.83;;
7607;SDS011;3845;48.120;11.534;2022-07-24T14:47:46;6.67;;;6.07;;
7607;SDS011;3845;48.120;11.534;2022-07-24T14:50:11;7.37;;;6.40;;
7607;SDS011;3845;48.120;11.534;2022-07-24T14:52:37;6.73;;;6.13;;
7607;SDS011;3845;48.120;11.534;2022-07-24T14:55:03;6.73;;;6.07;;
7607;SDS011;3845;48.120;11.534;2022-07-24T14:57:33;6.43;;;5.93;;
7607;SDS011;3845;48.120;11.534;2022-07-24T14:59:58;6.10;;;5.60;;
7607;SDS011;3845;48.120;11.534;2022-07-24T15:02:23;6.77;;;6.17;;
7607;SDS011;3845;48.120;11.534;2022-07-24T15:04:49;6.93;;;6.17;;
7607;SDS011;3845;48.120;11.534;2022-07-24T15:07:15;6.83;;;6.23;;
7607;SDS011;3845;48.120;11.534;2022-07-24T15:09:40;6.80;;;6.27;;
7607;SDS011;3845;48.120;11.534;2022-07-24T15:12:05;6.53;;;5.90;;
7607;SDS011;3845;48.120;11.534;2022-07-24T15:14:31;6.83;;;6.23;;
7607;SDS011;3845;48.120;11.534;2022-07-24T15:16:56;6.90;;;6.40;;
7607;SDS011;3845;48.120;11.534;2022-07-24T15:19:22;7.60;;;6.80;;
7607;SDS011;3845;48.120;11.534;2022-07-24T15:21:47;8.23;;;6.60;;
7607;SDS011;3845;48.120;11.534;2022-07-24T15:24:12;7.33;;;6.63;;
7607;SDS011;3845;48.120;11.534;2022-07-24T15:26:38;6.77;;;6.17;;
7607;SDS011;3845;48.120;11.534;2022-07-24T15:29:03;7.70;;;6.37;;
7607;SDS011;3845;48.120;11.534;2022-07-24T15:31:29;6.80;;;6.20;;